sensor_id;sensor_type;location;lat;lon;timestamp;P1;durP1;ratioP1;P2;durP2;ratioP2
60582;SDS011;46415;47.536;19.066;2023-05-10T00:02:19;2.92;;;2.20;;
60582;SDS011;46415;47.536;19.066;2023-05-10T00:05:22;3.37;;;2.70;;
60582;SDS011;46415;47.536;19.066;2023-05-10T00:08:24;4.22;;;2.67;;
60582;SDS011;46415;47.536;19.066;2023-05-10T00:11:27;2.45;;;2.30;;
60582;SDS011;46415;47.536;19.066;2023-05-10T00:14:30;2.58;;;2.37;;
60582;SDS011;46415;47.536;19.066;2023-05-10T00:17:33;2.80;;;2.42;;
60582;SDS011;46415;47.536;19.066;2023-05-10T00:20:35;2.50;;;2.30;;
60582;SDS011;46415;47.536;19.066;2023-05-10T00:23:38;2.60;;;2.40;;
60582;SDS011;46415;47.536;19.066;2023-05-10T00:26:41;2.65;;;2.45;;
60582;SDS011;46415;47.536;19.066;2023-05-10T00:29:44;3.05;;;2.83;;
60582;SDS011;46415;47.536;19.066;2023-05-10T00:32:47;2.90;;;2.70;;
60582;SDS011;46415;47.536;19.066;2023-05-10T00:35:52;2.53;;;2.33;;
60582;SDS011;46415;47.536;19.066;2023-05-10T00:38:54;2.83;;;2.50;;
60582;SDS011;46415;47.536;19.066;2023-05-10T00:41:58;3.08;;;2.40;;
60582;SDS011;46415;47.536;19.066;2023-05-10T00:45:02;3.10;;;2.62;;
60582;SDS011;46415;47.536;19.066;2023-05-10T00:48:05;2.80;;;2.60;;
60582;SDS011;46415;47.536;19.066;2023-05-10T00:51:08;2.80;;;2.60;;
60582;SDS011;46415;47.536;19.066;2023-05-10T00:54:12;3.35;;;2.85;;
60582;SDS011;46415;47.536;19.066;2023-05-10T00:57:17;2.40;;;2.20;;
60582;SDS011;46415;47.536;19.066;2023-05-10T01:00:19;3.00;;;2.80;;
60582;SDS011;46415;47.536;19.066;2023-05-10T01:03:22;3.10;;;2.80;;
60582;SDS011;46415;47.536;19.066;2023-05-10T01:06:26;2.35;;;2.15;;
60582;SDS011;46415;47.536;19.066;2023-05-10T01:09:28;2.92;;;2.72;;
60582;SDS011;46415;47.536;19.066;2023-05-10T01:12:32;3.20;;;2.25;;
60582;SDS011;46415;47.536;19.066;2023-05-10T01:15:39;2.62;;;2.42;;
60582;SDS011;46415;47.536;19.066;2023-05-10T01:18:43;2.70;;;2.47;;
60582;SDS011;46415;47.536;19.066;2023-05-10T01:38:07;3.45;;;3.15;;
60582;SDS011;46415;47.536;19.066;2023-05-10T01:41:41;3.50;;;2.92;;
60582;SDS011;46415;47.536;19.066;2023-05-10T01:48:18;2.67;;;2.47;;
60582;SDS011;46415;47.536;19.066;2023-05-10T01:51:24;4.05;;;3.33;;
60582;SDS011;46415;47.536;19.066;2023-05-10T01:54:28;2.90;;;2.70;;
60582;SDS011;46415;47.536;19.066;2023-05-10T01:57:35;3.47;;;3.17;;
60582;SDS011;46415;47.536;19.066;2023-05-10T02:00:45;4.10;;;2.65;;
60582;SDS011;46415;47.536;19.066;2023-05-10T02:03:49;3.50;;;3.20;;
60582;SDS011;46415;47.536;19.066;2023-05-10T02:06:53;3.35;;;2.83;;
60582;SDS011;46415;47.536;19.066;2023-05-10T02:09:57;2.95;;;2.60;;
60582;SDS011;46415;47.536;19.066;2023-05-10T02:13:01;3.25;;;2.08;;
60582;SDS011;46415;47.536;19.066;2023-05-10T02:16:06;3.40;;;3.10;;
60582;SDS011;46415;47.536;19.066;2023-05-10T02:19:09;3.10;;;2.80;;
60582;SDS011;46415;47.536;19.066;2023-05-10T02:22:14;3.70;;;3.40;;
60582;SDS011;46415;47.536;19.066;2023-05-10T02:25:19;3.05;;;2.78;;
60582;SDS011;46415;47.536;19.066;2023-05-10T02:28:23;3.67;;;3.22;;
60582;SDS011;46415;47.536;19.066;2023-05-10T02:31:30;3.20;;;2.90;;
60582;SDS011;46415;47.536;19.066;2023-05-10T02:34:35;3.05;;;2.85;;
60582;SDS011;46415;47.536;19.066;2023-05-10T02:37:38;3.03;;;2.83;;
60582;SDS011;46415;47.536;19.066;2023-05-10T02:40:42;3.40;;;3.10;;
60582;SDS011;46415;47.536;19.066;2023-05-10T02:43:46;3.80;;;3.50;;
60582;SDS011;46415;47.536;19.066;2023-05-10T02:46:52;3.20;;;2.90;;
60582;SDS011;46415;47.536;19.066;2023-05-10T02:49:54;4.72;;;3.00;;
60582;SDS011;46415;47.536;19.066;2023-05-10T02:53:01;3.40;;;3.10;;
60582;SDS011;46415;47.536;19.066;2023-05-10T02:56:10;3.42;;;3.12;;
60582;SDS011;46415;47.536;19.066;2023-05-10T02:59:16;3.50;;;3.20;;
60582;SDS011;46415;47.536;19.066;2023-05-10T03:02:20;3.58;;;3.28;;
60582;SDS011;46415;47.536;19.066;2023-05-10T03:05:23;4.43;;;3.25;;
60582;SDS011;46415;47.536;19.066;2023-05-10T03:08:26;4.47;;;3.42;;
60582;SDS011;46415;47.536;19.066;2023-05-10T03:18:10;3.45;;;3.15;;
60582;SDS011;46415;47.536;19.066;2023-05-10T03:21:17;4.12;;;3.37;;
60582;SDS011;46415;47.536;19.066;2023-05-10T03:24:22;3.40;;;3.10;;
60582;SDS011;46415;47.536;19.066;2023-05-10T03:27:30;3.75;;;3.30;;
60582;SDS011;46415;47.536;19.066;2023-05-10T03:30:34;3.25;;;2.95;;
60582;SDS011;46415;47.536;19.066;2023-05-10T03:33:46;3.53;;;3.22;;
60582;SDS011;46415;47.536;19.066;2023-05-10T03:36:50;3.33;;;3.03;;
60582;SDS011;46415;47.536;19.066;2023-05-10T03:39:54;5.28;;;3.50;;
60582;SDS011;46415;47.536;19.066;2023-05-10T03:42:57;3.80;;;3.28;;
60582;SDS011;46415;47.536;19.066;2023-05-10T03:46:01;3.37;;;3.03;;
60582;SDS011;46415;47.536;19.066;2023-05-10T03:49:05;6.12;;;3.15;;
60582;SDS011;46415;47.536;19.066;2023-05-10T03:52:08;3.97;;;3.37;;
60582;SDS011;46415;47.536;19.066;2023-05-10T03:55:11;2.92;;;2.67;;
60582;SDS011;46415;47.536;19.066;2023-05-10T03:58:14;4.15;;;3.33;;
60582;SDS011;46415;47.536;19.066;2023-05-10T04:01:17;3.12;;;2.83;;
60582;SDS011;46415;47.536;19.066;2023-05-10T04:04:21;4.32;;;3.92;;
60582;SDS011;46415;47.536;19.066;2023-05-10T04:07:25;3.20;;;2.92;;
60582;SDS011;46415;47.536;19.066;2023-05-10T04:10:28;3.85;;;3.45;;
60582;SDS011;46415;47.536;19.066;2023-05-10T04:13:30;4.40;;;3.92;;
60582;SDS011;46415;47.536;19.066;2023-05-10T04:16:33;3.58;;;3.28;;
60582;SDS011;46415;47.536;19.066;2023-05-10T04:19:36;5.40;;;3.53;;
60582;SDS011;46415;47.536;19.066;2023-05-10T04:22:39;3.65;;;3.22;;
60582;SDS011;46415;47.536;19.066;2023-05-10T04:25:42;4.03;;;3.72;;
60582;SDS011;46415;47.536;19.066;2023-05-10T04:28:45;5.20;;;3.90;;
60582;SDS011;46415;47.536;19.066;2023-05-10T04:31:47;5.32;;;3.70;;
60582;SDS011;46415;47.536;19.066;2023-05-10T04:34:51;4.80;;;3.70;;
60582;SDS011;46415;47.536;19.066;2023-05-10T04:37:54;4.07;;;3.70;;
60582;SDS011;46415;47.536;19.066;2023-05-10T04:41:03;3.80;;;3.42;;
60582;SDS011;46415;47.536;19.066;2023-05-10T04:44:07;4.28;;;3.70;;
60582;SDS011;46415;47.536;19.066;2023-05-10T04:47:10;4.35;;;3.95;;
60582;SDS011;46415;47.536;19.066;2023-05-10T04:50:14;4.12;;;3.83;;
60582;SDS011;46415;47.536;19.066;2023-05-10T04:53:17;3.75;;;3.30;;
60582;SDS011;46415;47.536;19.066;2023-05-10T04:56:20;4.87;;;3.90;;
60582;SDS011;46415;47.536;19.066;2023-05-10T04:59:24;3.95;;;3.65;;
60582;SDS011;46415;47.536;19.066;2023-05-10T05:02:26;4.28;;;3.92;;
60582;SDS011;46415;47.536;19.066;2023-05-10T05:05:29;4.75;;;4.35;;
60582;SDS011;46415;47.536;19.066;2023-05-10T05:08:33;3.95;;;3.53;;
60582;SDS011;46415;47.536;19.066;2023-05-10T05:11:36;4.65;;;3.90;;
60582;SDS011;46415;47.536;19.066;2023-05-10T05:14:38;4.12;;;3.83;;
60582;SDS011;46415;47.536;19.066;2023-05-10T05:17:42;4.37;;;3.92;;
60582;SDS011;46415;47.536;19.066;2023-05-10T05:20:45;4.85;;;4.00;;
60582;SDS011;46415;47.536;19.066;2023-05-10T05:23:48;4.47;;;4.03;;
60582;SDS011;46415;47.536;19.066;2023-05-10T05:26:51;3.97;;;3.67;;
60582;SDS011;46415;47.536;19.066;2023-05-10T05:29:54;4.35;;;3.90;;
60582;SDS011;46415;47.536;19.066;2023-05-10T05:33:00;5.07;;;4.57;;
60582;SDS011;46415;47.536;19.066;2023-05-10T05:36:03;4.05;;;3.72;;
60582;SDS011;46415;47.536;19.066;2023-05-10T05:39:07;5.75;;;4.57;;
60582;SDS011;46415;47.536;19.066;2023-05-10T05:42:10;4.97;;;4.47;;
60582;SDS011;46415;47.536;19.066;2023-05-10T05:45:13;4.72;;;4.28;;
60582;SDS011;46415;47.536;19.066;2023-05-10T05:48:17;4.30;;;3.90;;
60582;SDS011;46415;47.536;19.066;2023-05-10T05:51:19;4.68;;;4.28;;
60582;SDS011;46415;47.536;19.066;2023-05-10T05:54:22;10.10;;;5.82;;
60582;SDS011;46415;47.536;19.066;2023-05-10T05:57:25;6.05;;;4.68;;
60582;SDS011;46415;47.536;19.066;2023-05-10T06:00:29;7.95;;;5.40;;
60582;SDS011;46415;47.536;19.066;2023-05-10T06:03:32;6.43;;;4.90;;
60582;SDS011;46415;47.536;19.066;2023-05-10T06:06:34;5.05;;;4.00;;
60582;SDS011;46415;47.536;19.066;2023-05-10T06:09:37;7.65;;;4.50;;
60582;SDS011;46415;47.536;19.066;2023-05-10T06:12:40;4.68;;;4.05;;
60582;SDS011;46415;47.536;19.066;2023-05-10T06:15:43;8.63;;;4.30;;
60582;SDS011;46415;47.536;19.066;2023-05-10T06:18:46;4.35;;;4.05;;
60582;SDS011;46415;47.536;19.066;2023-05-10T06:21:49;4.85;;;4.35;;
60582;SDS011;46415;47.536;19.066;2023-05-10T06:24:54;5.80;;;4.50;;
60582;SDS011;46415;47.536;19.066;2023-05-10T06:27:57;4.65;;;4.20;;
60582;SDS011;46415;47.536;19.066;2023-05-10T06:31:00;4.18;;;3.87;;
60582;SDS011;46415;47.536;19.066;2023-05-10T06:34:03;4.65;;;4.22;;
60582;SDS011;46415;47.536;19.066;2023-05-10T06:37:06;4.53;;;3.90;;
60582;SDS011;46415;47.536;19.066;2023-05-10T06:40:09;6.28;;;4.00;;
60582;SDS011;46415;47.536;19.066;2023-05-10T06:43:12;4.43;;;4.03;;
60582;SDS011;46415;47.536;19.066;2023-05-10T06:46:15;4.03;;;3.72;;
60582;SDS011;46415;47.536;19.066;2023-05-10T06:49:17;4.57;;;4.18;;
60582;SDS011;46415;47.536;19.066;2023-05-10T06:52:20;4.05;;;3.75;;
60582;SDS011;46415;47.536;19.066;2023-05-10T06:55:43;4.45;;;4.00;;
60582;SDS011;46415;47.536;19.066;2023-05-10T06:58:46;4.30;;;4.00;;
60582;SDS011;46415;47.536;19.066;2023-05-10T07:01:49;4.90;;;4.12;;
60582;SDS011;46415;47.536;19.066;2023-05-10T07:04:52;4.68;;;4.20;;
60582;SDS011;46415;47.536;19.066;2023-05-10T07:07:56;4.40;;;4.00;;
60582;SDS011;46415;47.536;19.066;2023-05-10T07:11:03;4.65;;;4.25;;
60582;SDS011;46415;47.536;19.066;2023-05-10T07:14:07;4.55;;;4.15;;
60582;SDS011;46415;47.536;19.066;2023-05-10T07:17:10;5.47;;;4.00;;
60582;SDS011;46415;47.536;19.066;2023-05-10T07:20:13;4.75;;;4.32;;
60582;SDS011;46415;47.536;19.066;2023-05-10T07:23:15;4.45;;;4.00;;
60582;SDS011;46415;47.536;19.066;2023-05-10T07:26:20;4.55;;;3.87;;
60582;SDS011;46415;47.536;19.066;2023-05-10T07:29:23;4.30;;;3.90;;
60582;SDS011;46415;47.536;19.066;2023-05-10T07:32:26;5.10;;;4.03;;
60582;SDS011;46415;47.536;19.066;2023-05-10T07:35:29;5.40;;;4.40;;
60582;SDS011;46415;47.536;19.066;2023-05-10T07:38:31;4.20;;;3.80;;
60582;SDS011;46415;47.536;19.066;2023-05-10T07:41:34;3.95;;;3.65;;
60582;SDS011;46415;47.536;19.066;2023-05-10T07:44:37;4.30;;;3.90;;
60582;SDS011;46415;47.536;19.066;2023-05-10T07:47:40;4.28;;;3.75;;
60582;SDS011;46415;47.536;19.066;2023-05-10T07:50:43;7.25;;;3.90;;
60582;SDS011;46415;47.536;19.066;2023-05-10T07:53:46;4.22;;;3.83;;
60582;SDS011;46415;47.536;19.066;2023-05-10T07:56:49;6.57;;;3.87;;
60582;SDS011;46415;47.536;19.066;2023-05-10T07:59:53;5.10;;;3.85;;
60582;SDS011;46415;47.536;19.066;2023-05-10T08:02:55;4.20;;;3.90;;
60582;SDS011;46415;47.536;19.066;2023-05-10T08:05:59;4.30;;;3.90;;
60582;SDS011;46415;47.536;19.066;2023-05-10T08:09:01;4.68;;;3.40;;
60582;SDS011;46415;47.536;19.066;2023-05-10T08:12:04;3.70;;;2.95;;
60582;SDS011;46415;47.536;19.066;2023-05-10T08:15:07;4.80;;;3.37;;
60582;SDS011;46415;47.536;19.066;2023-05-10T08:18:11;3.62;;;3.33;;
60582;SDS011;46415;47.536;19.066;2023-05-10T08:21:14;4.97;;;3.90;;
60582;SDS011;46415;47.536;19.066;2023-05-10T08:24:18;3.40;;;2.90;;
60582;SDS011;46415;47.536;19.066;2023-05-10T08:27:20;7.07;;;3.20;;
60582;SDS011;46415;47.536;19.066;2023-05-10T08:30:23;3.20;;;2.95;;
60582;SDS011;46415;47.536;19.066;2023-05-10T08:33:26;5.15;;;3.37;;
60582;SDS011;46415;47.536;19.066;2023-05-10T08:36:29;3.67;;;3.03;;
60582;SDS011;46415;47.536;19.066;2023-05-10T08:39:35;3.78;;;3.12;;
60582;SDS011;46415;47.536;19.066;2023-05-10T08:42:39;3.62;;;3.30;;
60582;SDS011;46415;47.536;19.066;2023-05-10T08:45:44;3.40;;;3.10;;
60582;SDS011;46415;47.536;19.066;2023-05-10T08:48:50;3.70;;;3.40;;
60582;SDS011;46415;47.536;19.066;2023-05-10T08:51:54;5.12;;;3.15;;
60582;SDS011;46415;47.536;19.066;2023-05-10T08:54:58;3.70;;;3.25;;
60582;SDS011;46415;47.536;19.066;2023-05-10T08:58:01;5.68;;;3.17;;
60582;SDS011;46415;47.536;19.066;2023-05-10T09:01:04;3.60;;;3.30;;
60582;SDS011;46415;47.536;19.066;2023-05-10T09:04:08;3.72;;;3.30;;
60582;SDS011;46415;47.536;19.066;2023-05-10T09:07:12;3.53;;;3.22;;
60582;SDS011;46415;47.536;19.066;2023-05-10T09:10:15;3.45;;;3.12;;
60582;SDS011;46415;47.536;19.066;2023-05-10T09:13:19;4.25;;;3.03;;
60582;SDS011;46415;47.536;19.066;2023-05-10T09:16:23;4.62;;;3.25;;
60582;SDS011;46415;47.536;19.066;2023-05-10T09:19:27;3.78;;;3.42;;
60582;SDS011;46415;47.536;19.066;2023-05-10T09:22:31;3.30;;;3.00;;
60582;SDS011;46415;47.536;19.066;2023-05-10T09:25:35;3.33;;;3.00;;
60582;SDS011;46415;47.536;19.066;2023-05-10T09:28:52;3.05;;;2.85;;
60582;SDS011;46415;47.536;19.066;2023-05-10T09:31:57;3.53;;;2.97;;
60582;SDS011;46415;47.536;19.066;2023-05-10T09:35:05;4.22;;;2.97;;
60582;SDS011;46415;47.536;19.066;2023-05-10T09:38:09;3.85;;;2.80;;
60582;SDS011;46415;47.536;19.066;2023-05-10T09:41:18;3.17;;;2.90;;
60582;SDS011;46415;47.536;19.066;2023-05-10T09:44:23;4.20;;;3.03;;
60582;SDS011;46415;47.536;19.066;2023-05-10T09:47:28;3.03;;;2.83;;
60582;SDS011;46415;47.536;19.066;2023-05-10T09:50:32;10.68;;;3.40;;
60582;SDS011;46415;47.536;19.066;2023-05-10T09:53:36;4.47;;;3.10;;
60582;SDS011;46415;47.536;19.066;2023-05-10T09:56:39;3.90;;;2.95;;
60582;SDS011;46415;47.536;19.066;2023-05-10T09:59:42;3.40;;;3.20;;
60582;SDS011;46415;47.536;19.066;2023-05-10T10:02:47;3.55;;;3.00;;
60582;SDS011;46415;47.536;19.066;2023-05-10T10:05:57;3.05;;;2.78;;
60582;SDS011;46415;47.536;19.066;2023-05-10T10:08:59;3.03;;;2.83;;
60582;SDS011;46415;47.536;19.066;2023-05-10T10:12:03;2.85;;;2.65;;
60582;SDS011;46415;47.536;19.066;2023-05-10T10:15:07;3.00;;;2.78;;
60582;SDS011;46415;47.536;19.066;2023-05-10T10:18:14;3.30;;;3.03;;
60582;SDS011;46415;47.536;19.066;2023-05-10T10:21:17;3.00;;;2.80;;
60582;SDS011;46415;47.536;19.066;2023-05-10T10:24:21;3.58;;;3.28;;
60582;SDS011;46415;47.536;19.066;2023-05-10T10:27:36;3.10;;;2.80;;
60582;SDS011;46415;47.536;19.066;2023-05-10T10:30:51;2.80;;;2.60;;
60582;SDS011;46415;47.536;19.066;2023-05-10T10:34:05;3.25;;;2.83;;
60582;SDS011;46415;47.536;19.066;2023-05-10T10:37:09;2.80;;;2.60;;
60582;SDS011;46415;47.536;19.066;2023-05-10T10:40:25;2.53;;;2.42;;
60582;SDS011;46415;47.536;19.066;2023-05-10T10:43:29;3.08;;;2.40;;
60582;SDS011;46415;47.536;19.066;2023-05-10T10:46:32;2.65;;;2.45;;
60582;SDS011;46415;47.536;19.066;2023-05-10T10:50:23;2.30;;;2.20;;
60582;SDS011;46415;47.536;19.066;2023-05-10T10:53:05;2.17;;;2.08;;
60582;SDS011;46415;47.536;19.066;2023-05-10T10:56:13;2.40;;;2.30;;
60582;SDS011;46415;47.536;19.066;2023-05-10T10:59:26;5.60;;;2.45;;
60582;SDS011;46415;47.536;19.066;2023-05-10T11:02:34;2.30;;;2.20;;
60582;SDS011;46415;47.536;19.066;2023-05-10T11:05:49;2.37;;;2.17;;
60582;SDS011;46415;47.536;19.066;2023-05-10T11:08:53;2.25;;;2.05;;
60582;SDS011;46415;47.536;19.066;2023-05-10T11:11:56;4.30;;;2.47;;
60582;SDS011;46415;47.536;19.066;2023-05-10T11:15:02;9.98;;;2.90;;
60582;SDS011;46415;47.536;19.066;2023-05-10T11:18:18;2.15;;;2.05;;
60582;SDS011;46415;47.536;19.066;2023-05-10T11:21:22;3.07;;;2.40;;
60582;SDS011;46415;47.536;19.066;2023-05-10T11:24:26;2.42;;;2.20;;
60582;SDS011;46415;47.536;19.066;2023-05-10T11:27:30;2.35;;;2.00;;
60582;SDS011;46415;47.536;19.066;2023-05-10T11:30:36;2.25;;;2.05;;
60582;SDS011;46415;47.536;19.066;2023-05-10T11:33:47;2.28;;;2.05;;
60582;SDS011;46415;47.536;19.066;2023-05-10T11:36:54;3.62;;;2.22;;
60582;SDS011;46415;47.536;19.066;2023-05-10T11:39:58;2.95;;;1.95;;
60582;SDS011;46415;47.536;19.066;2023-05-10T11:43:00;2.40;;;2.25;;
60582;SDS011;46415;47.536;19.066;2023-05-10T11:46:07;2.10;;;2.00;;
60582;SDS011;46415;47.536;19.066;2023-05-10T11:52:15;2.80;;;2.30;;
60582;SDS011;46415;47.536;19.066;2023-05-10T11:55:21;3.05;;;2.17;;
60582;SDS011;46415;47.536;19.066;2023-05-10T11:58:24;3.80;;;2.10;;
60582;SDS011;46415;47.536;19.066;2023-05-10T12:01:27;2.08;;;1.98;;
60582;SDS011;46415;47.536;19.066;2023-05-10T12:04:31;2.87;;;2.22;;
60582;SDS011;46415;47.536;19.066;2023-05-10T12:07:34;3.58;;;2.10;;
60582;SDS011;46415;47.536;19.066;2023-05-10T12:10:37;2.15;;;1.95;;
60582;SDS011;46415;47.536;19.066;2023-05-10T12:13:40;2.87;;;2.15;;
60582;SDS011;46415;47.536;19.066;2023-05-10T12:16:48;2.50;;;2.30;;
60582;SDS011;46415;47.536;19.066;2023-05-10T12:19:52;2.45;;;2.08;;
60582;SDS011;46415;47.536;19.066;2023-05-10T12:22:56;2.72;;;1.80;;
60582;SDS011;46415;47.536;19.066;2023-05-10T12:26:02;2.17;;;2.00;;
60582;SDS011;46415;47.536;19.066;2023-05-10T12:29:15;1.98;;;1.80;;
60582;SDS011;46415;47.536;19.066;2023-05-10T12:32:19;1.87;;;1.73;;
60582;SDS011;46415;47.536;19.066;2023-05-10T12:35:22;1.98;;;1.87;;
60582;SDS011;46415;47.536;19.066;2023-05-10T12:41:29;1.65;;;1.50;;
60582;SDS011;46415;47.536;19.066;2023-05-10T12:44:31;1.95;;;1.85;;
60582;SDS011;46415;47.536;19.066;2023-05-10T12:47:34;2.87;;;1.75;;
60582;SDS011;46415;47.536;19.066;2023-05-10T12:50:38;2.10;;;2.00;;
60582;SDS011;46415;47.536;19.066;2023-05-10T12:53:41;2.30;;;1.30;;
60582;SDS011;46415;47.536;19.066;2023-05-10T12:56:47;3.58;;;1.70;;
60582;SDS011;46415;47.536;19.066;2023-05-10T12:59:50;1.95;;;1.77;;
60582;SDS011;46415;47.536;19.066;2023-05-10T13:02:52;2.08;;;1.77;;
60582;SDS011;46415;47.536;19.066;2023-05-10T13:05:55;1.90;;;1.80;;
60582;SDS011;46415;47.536;19.066;2023-05-10T13:08:58;1.90;;;1.80;;
60582;SDS011;46415;47.536;19.066;2023-05-10T13:12:01;3.58;;;1.70;;
60582;SDS011;46415;47.536;19.066;2023-05-10T13:15:04;1.90;;;1.80;;
60582;SDS011;46415;47.536;19.066;2023-05-10T13:18:08;2.50;;;1.60;;
60582;SDS011;46415;47.536;19.066;2023-05-10T13:21:10;1.65;;;1.55;;
60582;SDS011;46415;47.536;19.066;2023-05-10T13:24:13;2.47;;;1.55;;
60582;SDS011;46415;47.536;19.066;2023-05-10T13:27:16;2.03;;;1.52;;
60582;SDS011;46415;47.536;19.066;2023-05-10T13:30:19;1.77;;;1.67;;
60582;SDS011;46415;47.536;19.066;2023-05-10T13:33:22;3.00;;;1.55;;
60582;SDS011;46415;47.536;19.066;2023-05-10T13:36:25;2.92;;;1.70;;
60582;SDS011;46415;47.536;19.066;2023-05-10T13:39:28;1.50;;;1.40;;
60582;SDS011;46415;47.536;19.066;2023-05-10T13:42:35;1.90;;;1.80;;
60582;SDS011;46415;47.536;19.066;2023-05-10T13:45:38;2.08;;;1.55;;
60582;SDS011;46415;47.536;19.066;2023-05-10T13:48:41;1.48;;;1.35;;
60582;SDS011;46415;47.536;19.066;2023-05-10T13:51:44;1.90;;;1.60;;
60582;SDS011;46415;47.536;19.066;2023-05-10T13:54:47;2.40;;;1.65;;
60582;SDS011;46415;47.536;19.066;2023-05-10T13:57:49;2.37;;;1.60;;
60582;SDS011;46415;47.536;19.066;2023-05-10T14:00:52;1.67;;;1.58;;
60582;SDS011;46415;47.536;19.066;2023-05-10T14:03:55;2.67;;;2.03;;
60582;SDS011;46415;47.536;19.066;2023-05-10T14:06:58;1.40;;;1.30;;
60582;SDS011;46415;47.536;19.066;2023-05-10T14:10:03;1.70;;;1.40;;
60582;SDS011;46415;47.536;19.066;2023-05-10T14:13:06;2.08;;;1.37;;
60582;SDS011;46415;47.536;19.066;2023-05-10T14:16:10;1.70;;;1.60;;
60582;SDS011;46415;47.536;19.066;2023-05-10T14:19:13;1.80;;;1.40;;
60582;SDS011;46415;47.536;19.066;2023-05-10T14:22:16;2.87;;;1.30;;
60582;SDS011;46415;47.536;19.066;2023-05-10T14:25:19;1.23;;;1.20;;
60582;SDS011;46415;47.536;19.066;2023-05-10T14:28:22;1.33;;;1.23;;
60582;SDS011;46415;47.536;19.066;2023-05-10T14:31:25;3.33;;;1.92;;
60582;SDS011;46415;47.536;19.066;2023-05-10T14:34:28;4.78;;;1.55;;
60582;SDS011;46415;47.536;19.066;2023-05-10T14:37:31;1.33;;;1.23;;
60582;SDS011;46415;47.536;19.066;2023-05-10T14:40:34;1.50;;;1.40;;
60582;SDS011;46415;47.536;19.066;2023-05-10T14:43:37;1.85;;;1.30;;
60582;SDS011;46415;47.536;19.066;2023-05-10T14:46:40;1.58;;;1.35;;
60582;SDS011;46415;47.536;19.066;2023-05-10T14:49:44;3.17;;;1.48;;
60582;SDS011;46415;47.536;19.066;2023-05-10T14:52:46;3.67;;;1.50;;
60582;SDS011;46415;47.536;19.066;2023-05-10T14:55:49;2.00;;;1.42;;
60582;SDS011;46415;47.536;19.066;2023-05-10T14:58:52;1.45;;;1.35;;
60582;SDS011;46415;47.536;19.066;2023-05-10T15:01:56;3.40;;;1.30;;
60582;SDS011;46415;47.536;19.066;2023-05-10T15:04:59;1.35;;;1.25;;
60582;SDS011;46415;47.536;19.066;2023-05-10T15:08:03;2.37;;;1.30;;
60582;SDS011;46415;47.536;19.066;2023-05-10T15:11:07;2.85;;;1.10;;
60582;SDS011;46415;47.536;19.066;2023-05-10T15:14:10;1.55;;;1.45;;
60582;SDS011;46415;47.536;19.066;2023-05-10T15:17:12;1.42;;;1.33;;
60582;SDS011;46415;47.536;19.066;2023-05-10T15:20:15;1.83;;;1.12;;
60582;SDS011;46415;47.536;19.066;2023-05-10T15:23:18;2.60;;;1.10;;
60582;SDS011;46415;47.536;19.066;2023-05-10T15:26:20;1.10;;;1.10;;
60582;SDS011;46415;47.536;19.066;2023-05-10T15:29:24;3.12;;;1.60;;
60582;SDS011;46415;47.536;19.066;2023-05-10T15:32:27;1.23;;;1.20;;
60582;SDS011;46415;47.536;19.066;2023-05-10T15:35:31;2.62;;;1.30;;
60582;SDS011;46415;47.536;19.066;2023-05-10T15:38:34;2.97;;;1.30;;
60582;SDS011;46415;47.536;19.066;2023-05-10T15:41:39;2.12;;;1.45;;
60582;SDS011;46415;47.536;19.066;2023-05-10T15:44:41;1.35;;;1.25;;
60582;SDS011;46415;47.536;19.066;2023-05-10T15:47:46;1.48;;;1.12;;
60582;SDS011;46415;47.536;19.066;2023-05-10T15:50:48;1.30;;;1.20;;
60582;SDS011;46415;47.536;19.066;2023-05-10T15:53:51;2.20;;;1.25;;
60582;SDS011;46415;47.536;19.066;2023-05-10T15:57:08;1.35;;;1.25;;
60582;SDS011;46415;47.536;19.066;2023-05-10T16:00:11;1.50;;;1.20;;
60582;SDS011;46415;47.536;19.066;2023-05-10T16:03:14;1.17;;;1.12;;
60582;SDS011;46415;47.536;19.066;2023-05-10T16:06:17;1.48;;;1.37;;
60582;SDS011;46415;47.536;19.066;2023-05-10T16:09:20;1.60;;;1.50;;
60582;SDS011;46415;47.536;19.066;2023-05-10T16:12:23;2.17;;;1.98;;
60582;SDS011;46415;47.536;19.066;2023-05-10T16:15:26;1.77;;;1.67;;
60582;SDS011;46415;47.536;19.066;2023-05-10T16:18:29;1.27;;;1.17;;
60582;SDS011;46415;47.536;19.066;2023-05-10T16:21:32;1.40;;;1.30;;
60582;SDS011;46415;47.536;19.066;2023-05-10T16:24:35;1.30;;;1.20;;
60582;SDS011;46415;47.536;19.066;2023-05-10T16:27:37;2.40;;;1.40;;
60582;SDS011;46415;47.536;19.066;2023-05-10T16:30:40;1.92;;;1.52;;
60582;SDS011;46415;47.536;19.066;2023-05-10T16:33:43;3.65;;;1.70;;
60582;SDS011;46415;47.536;19.066;2023-05-10T16:36:46;2.00;;;1.80;;
60582;SDS011;46415;47.536;19.066;2023-05-10T16:39:49;2.30;;;1.48;;
60582;SDS011;46415;47.536;19.066;2023-05-10T16:42:51;1.90;;;1.80;;
60582;SDS011;46415;47.536;19.066;2023-05-10T16:45:54;2.00;;;1.80;;
60582;SDS011;46415;47.536;19.066;2023-05-10T16:48:58;1.65;;;1.55;;
60582;SDS011;46415;47.536;19.066;2023-05-10T16:52:01;2.40;;;1.90;;
60582;SDS011;46415;47.536;19.066;2023-05-10T16:55:04;1.77;;;1.60;;
60582;SDS011;46415;47.536;19.066;2023-05-10T16:58:07;1.92;;;1.83;;
60582;SDS011;46415;47.536;19.066;2023-05-10T17:01:10;2.22;;;2.03;;
60582;SDS011;46415;47.536;19.066;2023-05-10T17:04:13;1.77;;;1.67;;
60582;SDS011;46415;47.536;19.066;2023-05-10T17:07:16;2.90;;;2.00;;
60582;SDS011;46415;47.536;19.066;2023-05-10T17:10:20;2.03;;;1.90;;
60582;SDS011;46415;47.536;19.066;2023-05-10T17:13:23;2.45;;;1.70;;
60582;SDS011;46415;47.536;19.066;2023-05-10T17:16:25;4.80;;;2.03;;
60582;SDS011;46415;47.536;19.066;2023-05-10T17:19:28;2.00;;;1.80;;
60582;SDS011;46415;47.536;19.066;2023-05-10T17:22:31;2.28;;;2.08;;
60582;SDS011;46415;47.536;19.066;2023-05-10T17:25:34;2.10;;;1.90;;
60582;SDS011;46415;47.536;19.066;2023-05-10T17:28:37;2.30;;;2.17;;
60582;SDS011;46415;47.536;19.066;2023-05-10T17:31:41;1.98;;;1.87;;
60582;SDS011;46415;47.536;19.066;2023-05-10T17:34:43;2.70;;;1.95;;
60582;SDS011;46415;47.536;19.066;2023-05-10T17:37:46;1.85;;;1.75;;
60582;SDS011;46415;47.536;19.066;2023-05-10T17:40:49;2.58;;;2.15;;
60582;SDS011;46415;47.536;19.066;2023-05-10T17:43:53;2.45;;;2.12;;
60582;SDS011;46415;47.536;19.066;2023-05-10T17:46:55;2.75;;;2.30;;
60582;SDS011;46415;47.536;19.066;2023-05-10T17:49:58;2.42;;;2.22;;
60582;SDS011;46415;47.536;19.066;2023-05-10T17:53:01;2.10;;;1.90;;
60582;SDS011;46415;47.536;19.066;2023-05-10T17:56:04;2.35;;;2.08;;
60582;SDS011;46415;47.536;19.066;2023-05-10T17:59:07;2.78;;;2.17;;
60582;SDS011;46415;47.536;19.066;2023-05-10T18:02:10;2.17;;;1.98;;
60582;SDS011;46415;47.536;19.066;2023-05-10T18:05:14;3.67;;;2.00;;
60582;SDS011;46415;47.536;19.066;2023-05-10T18:08:17;1.80;;;1.70;;
60582;SDS011;46415;47.536;19.066;2023-05-10T18:11:24;2.37;;;1.80;;
60582;SDS011;46415;47.536;19.066;2023-05-10T18:14:27;2.85;;;1.92;;
60582;SDS011;46415;47.536;19.066;2023-05-10T18:17:42;2.30;;;2.10;;
60582;SDS011;46415;47.536;19.066;2023-05-10T18:20:45;2.42;;;2.17;;
60582;SDS011;46415;47.536;19.066;2023-05-10T18:23:48;2.53;;;1.77;;
60582;SDS011;46415;47.536;19.066;2023-05-10T18:26:51;2.03;;;1.87;;
60582;SDS011;46415;47.536;19.066;2023-05-10T18:29:57;2.83;;;2.22;;
60582;SDS011;46415;47.536;19.066;2023-05-10T18:33:00;2.00;;;1.80;;
60582;SDS011;46415;47.536;19.066;2023-05-10T18:36:03;2.75;;;2.03;;
60582;SDS011;46415;47.536;19.066;2023-05-10T18:39:06;1.92;;;1.77;;
60582;SDS011;46415;47.536;19.066;2023-05-10T18:42:10;2.35;;;2.15;;
60582;SDS011;46415;47.536;19.066;2023-05-10T18:45:13;3.20;;;2.10;;